PKWA TAF

86.9 °F / 30.5 °C
ENE at 16 MPH
73%
77.5°F / 25.3 °C
29.84" (1010 mb)
10 mile(s)
partly cloudy
2020.05.28 0340 UTC

PKWA TAF

2020/05/27 18:30
TAF PKWA 271725Z 2718/2818 05011KT P6SM FEW020 SCT060